createdAt,value
2022-12-18T00:02:11.570Z,-5.26
2022-12-18T00:04:38.249Z,-5.49
2022-12-18T00:07:05.009Z,-5.27
2022-12-18T00:09:39.628Z,-5.25
2022-12-18T00:14:43.081Z,-5.32
2022-12-18T00:17:10.034Z,-5.32
2022-12-18T00:19:36.805Z,-5.17
2022-12-18T00:22:03.667Z,-5.75
2022-12-18T00:24:30.390Z,-5.60
2022-12-18T00:26:56.982Z,-5.37
2022-12-18T00:29:23.534Z,-5.12
2022-12-18T00:31:50.273Z,-5.13
2022-12-18T00:34:17.247Z,-5.01
2022-12-18T00:36:43.785Z,-4.99
2022-12-18T00:39:13.226Z,-5.04
2022-12-18T00:41:58.766Z,-5.06
2022-12-18T00:44:25.864Z,-5.83
2022-12-18T00:46:52.497Z,-5.29
2022-12-18T00:49:20.983Z,-5.23
2022-12-18T00:51:48.691Z,-5.57
2022-12-18T00:54:15.726Z,-5.25
2022-12-18T00:56:50.086Z,-5.99
2022-12-18T00:59:20.624Z,-5.36
2022-12-18T01:01:47.865Z,-5.51
2022-12-18T01:04:14.926Z,-5.39
2022-12-18T01:06:41.613Z,-5.89
2022-12-18T01:09:08.196Z,-5.40
2022-12-18T01:11:36.974Z,-5.38
2022-12-18T01:14:05.076Z,-5.39
2022-12-18T01:16:31.698Z,-6.34
2022-12-18T01:18:58.307Z,-5.69
2022-12-18T01:21:27.871Z,-5.95
2022-12-18T01:23:56.008Z,-5.77
2022-12-18T01:26:24.920Z,-5.75
2022-12-18T01:28:51.773Z,-5.67
2022-12-18T01:31:25.187Z,-5.71
2022-12-18T01:33:53.393Z,-5.68
2022-12-18T01:36:23.238Z,-6.19
2022-12-18T01:38:51.119Z,-5.69
2022-12-18T01:41:22.883Z,-5.68
2022-12-18T01:43:55.334Z,-6.10
2022-12-18T01:46:24.000Z,-5.81
2022-12-18T01:48:54.404Z,-5.83
2022-12-18T01:51:21.569Z,-6.12
2022-12-18T01:53:49.108Z,-6.15
2022-12-18T01:56:18.616Z,-5.92
2022-12-18T01:59:03.649Z,-5.85
2022-12-18T02:01:32.318Z,-6.44
2022-12-18T02:04:24.445Z,-5.85
2022-12-18T02:07:02.790Z,-6.29
2022-12-18T02:09:36.443Z,-6.97
2022-12-18T02:12:14.227Z,-5.64
2022-12-18T02:15:10.763Z,-5.64
2022-12-18T02:17:48.704Z,-5.60
2022-12-18T02:20:24.907Z,-5.56
2022-12-18T02:23:10.418Z,-5.65
2022-12-18T02:25:55.957Z,-5.77
2022-12-18T02:28:26.853Z,-6.22
2022-12-18T02:30:58.794Z,-6.39
2022-12-18T02:33:28.239Z,-5.89
2022-12-18T02:35:57.128Z,-5.87
2022-12-18T02:38:26.421Z,-5.82
2022-12-18T02:40:55.738Z,-5.75
2022-12-18T02:43:22.750Z,-5.69
2022-12-18T02:45:55.902Z,-5.90
2022-12-18T02:48:31.345Z,-5.62
2022-12-18T02:51:30.093Z,-5.68
2022-12-18T02:54:18.083Z,-5.66
2022-12-18T02:56:55.257Z,-5.80
2022-12-18T02:59:39.813Z,-5.84
2022-12-18T03:02:27.830Z,-6.44
2022-12-18T03:05:08.236Z,-6.20
2022-12-18T03:07:41.469Z,-5.76
2022-12-18T03:10:15.031Z,-5.81
2022-12-18T03:12:49.074Z,-6.11
2022-12-18T03:15:25.104Z,-5.83
2022-12-18T03:18:05.643Z,-6.59
2022-12-18T03:20:35.185Z,-6.06
2022-12-18T03:23:12.493Z,-6.80
2022-12-18T03:25:42.958Z,-6.20
2022-12-18T03:28:13.127Z,-6.00
2022-12-18T03:30:42.552Z,-6.02
2022-12-18T03:33:14.361Z,-6.12
2022-12-18T03:35:45.379Z,-6.52
2022-12-18T03:38:13.833Z,-6.54
2022-12-18T03:41:16.980Z,-6.39
2022-12-18T03:44:19.856Z,-6.22
2022-12-18T03:47:06.112Z,-5.88
2022-12-18T03:49:51.566Z,-5.90
2022-12-18T03:52:28.270Z,-5.79
2022-12-18T03:54:57.783Z,-6.09
2022-12-18T03:57:28.952Z,-5.94
2022-12-18T04:00:00.971Z,-6.03
2022-12-18T04:02:45.613Z,-6.60
2022-12-18T04:05:16.777Z,-6.25
2022-12-18T04:07:47.148Z,-6.75
2022-12-18T04:10:16.529Z,-6.09
2022-12-18T04:12:43.736Z,-6.56
2022-12-18T04:15:13.877Z,-6.08
2022-12-18T04:17:48.850Z,-6.04
2022-12-18T04:20:18.200Z,-6.13
2022-12-18T04:22:45.696Z,-5.97
2022-12-18T04:25:14.265Z,-6.79
2022-12-18T04:27:52.994Z,-7.02
2022-12-18T04:30:19.710Z,-6.89
2022-12-18T04:32:51.876Z,-6.46
2022-12-18T04:35:19.883Z,-6.56
2022-12-18T04:37:47.339Z,-6.89
2022-12-18T04:40:15.411Z,-6.88
2022-12-18T04:42:45.596Z,-6.72
2022-12-18T04:45:12.395Z,-6.65
2022-12-18T04:47:39.082Z,-6.56
2022-12-18T04:50:06.609Z,-6.47
2022-12-18T04:52:33.272Z,-6.42
2022-12-18T04:54:59.906Z,-6.80
2022-12-18T04:57:27.098Z,-6.69
2022-12-18T04:59:53.809Z,-6.63
2022-12-18T05:02:20.508Z,-7.43
2022-12-18T05:04:47.364Z,-6.57
2022-12-18T05:07:14.038Z,-6.83
2022-12-18T05:09:40.829Z,-7.00
2022-12-18T05:12:08.723Z,-6.54
2022-12-18T05:14:38.649Z,-7.00
2022-12-18T05:17:05.548Z,-6.64
2022-12-18T05:19:32.516Z,-6.65
2022-12-18T05:21:59.277Z,-7.20
2022-12-18T05:24:26.262Z,-6.77
2022-12-18T05:26:53.106Z,-6.76
2022-12-18T05:29:19.871Z,-6.96
2022-12-18T05:31:46.602Z,-6.49
2022-12-18T05:34:13.436Z,-7.02
2022-12-18T05:36:40.482Z,-6.66
2022-12-18T05:39:07.653Z,-6.52
2022-12-18T05:41:34.752Z,-6.38
2022-12-18T05:44:01.428Z,-6.52
2022-12-18T05:46:28.296Z,-6.56
2022-12-18T05:48:55.086Z,-6.68
2022-12-18T05:51:23.014Z,-6.39
2022-12-18T05:53:49.877Z,-6.53
2022-12-18T05:56:19.786Z,-6.64
2022-12-18T05:58:47.353Z,-6.67
2022-12-18T06:01:27.326Z,-6.85
2022-12-18T06:03:54.704Z,-6.74
2022-12-18T06:06:24.457Z,-6.63
2022-12-18T06:08:51.830Z,-6.69
2022-12-18T06:11:21.288Z,-6.76
2022-12-18T06:13:54.770Z,-6.78
2022-12-18T06:16:25.031Z,-6.83
2022-12-18T06:18:51.862Z,-7.52
2022-12-18T06:21:18.576Z,-6.80
2022-12-18T06:23:45.329Z,-7.50
2022-12-18T06:26:13.764Z,-7.72
2022-12-18T06:28:41.070Z,-6.86
2022-12-18T06:31:15.688Z,-6.93
2022-12-18T06:33:45.846Z,-7.40
2022-12-18T06:36:14.257Z,-6.92
2022-12-18T06:38:44.583Z,-7.13
2022-12-18T06:41:20.325Z,-7.27
2022-12-18T06:43:48.233Z,-7.34
2022-12-18T06:46:15.217Z,-6.92
2022-12-18T06:48:42.252Z,-7.54
2022-12-18T06:51:09.301Z,-7.31
2022-12-18T06:53:36.071Z,-7.48
2022-12-18T06:56:10.263Z,-7.96
2022-12-18T06:58:38.739Z,-7.26
2022-12-18T07:01:08.081Z,-6.78
2022-12-18T07:03:35.798Z,-6.77
2022-12-18T07:06:02.718Z,-6.87
2022-12-18T07:08:30.979Z,-6.88
2022-12-18T07:10:57.983Z,-6.69
2022-12-18T07:13:24.768Z,-6.71
2022-12-18T07:15:51.693Z,-6.50
2022-12-18T07:18:18.371Z,-7.17
2022-12-18T07:20:45.185Z,-7.09
2022-12-18T07:23:12.763Z,-6.54
2022-12-18T07:25:40.442Z,-6.62
2022-12-18T07:28:08.859Z,-6.58
2022-12-18T07:30:39.379Z,-7.26
2022-12-18T07:33:06.085Z,-7.39
2022-12-18T07:35:34.117Z,-6.57
2022-12-18T07:38:00.849Z,-6.65
2022-12-18T07:40:28.378Z,-6.57
2022-12-18T07:42:55.417Z,-6.82
2022-12-18T07:45:22.166Z,-6.55
2022-12-18T07:47:48.880Z,-7.16
2022-12-18T07:50:16.178Z,-6.81
2022-12-18T07:52:43.338Z,-7.36
2022-12-18T07:55:10.122Z,-6.57
2022-12-18T07:57:56.408Z,-6.78
2022-12-18T08:00:24.041Z,-6.94
2022-12-18T08:02:50.836Z,-6.82
2022-12-18T08:05:18.252Z,-6.78
2022-12-18T08:07:45.089Z,-6.85
2022-12-18T08:10:12.015Z,-6.73
2022-12-18T08:12:40.515Z,-6.71
2022-12-18T08:15:08.242Z,-6.76
2022-12-18T08:17:35.025Z,-7.11
2022-12-18T08:20:02.333Z,-6.89
2022-12-18T08:22:29.040Z,-7.24
2022-12-18T08:24:55.892Z,-6.73
2022-12-18T08:27:30.451Z,-7.56
2022-12-18T08:29:58.324Z,-6.44
2022-12-18T08:32:26.696Z,-6.97
2022-12-18T08:34:53.597Z,-7.05
2022-12-18T08:37:20.569Z,-6.96
2022-12-18T08:39:47.252Z,-6.84
2022-12-18T08:42:32.935Z,-7.20
2022-12-18T08:44:59.751Z,-7.53
2022-12-18T08:47:27.145Z,-7.36
2022-12-18T08:49:54.031Z,-7.49
2022-12-18T08:52:20.979Z,-7.26
2022-12-18T08:54:47.950Z,-6.97
2022-12-18T08:57:14.875Z,-7.05
2022-12-18T08:59:42.244Z,-7.48
2022-12-18T09:02:13.175Z,-7.38
2022-12-18T09:04:40.897Z,-7.90
2022-12-18T09:07:07.761Z,-7.75
2022-12-18T09:09:34.423Z,-7.30
2022-12-18T09:12:01.270Z,-7.32
2022-12-18T09:14:28.061Z,-7.13
2022-12-18T09:16:54.838Z,-7.27
2022-12-18T09:19:22.323Z,-7.31
2022-12-18T09:21:49.378Z,-7.77
2022-12-18T09:24:17.027Z,-7.29
2022-12-18T09:26:46.897Z,-7.22
2022-12-18T09:29:18.853Z,-7.49
2022-12-18T09:31:46.426Z,-7.42
2022-12-18T09:34:13.677Z,-7.02
2022-12-18T09:36:40.742Z,-6.96
2022-12-18T09:39:08.998Z,-8.15
2022-12-18T09:41:42.448Z,-7.21
2022-12-18T09:47:44.143Z,-7.04
2022-12-18T09:50:35.159Z,-6.74
2022-12-18T09:53:17.042Z,-7.01
2022-12-18T09:55:47.571Z,-6.72
2022-12-18T09:58:17.498Z,-6.61
2022-12-18T10:00:44.604Z,-7.09
2022-12-18T10:03:16.355Z,-7.22
2022-12-18T10:05:52.427Z,-6.89
2022-12-18T10:08:37.954Z,-7.05
2022-12-18T10:11:23.072Z,-6.95
2022-12-18T10:14:10.844Z,-7.18
2022-12-18T10:16:54.274Z,-7.02
2022-12-18T10:19:59.604Z,-7.05
2022-12-18T10:22:31.931Z,-7.13
2022-12-18T10:25:38.160Z,-7.18
2022-12-18T10:28:14.383Z,-7.76
2022-12-18T10:30:43.272Z,-8.06
2022-12-18T10:33:15.067Z,-7.09
2022-12-18T10:35:43.274Z,-7.22
2022-12-18T10:38:13.578Z,-6.99
2022-12-18T10:40:53.017Z,-7.20
2022-12-18T10:43:36.063Z,-6.90
2022-12-18T10:46:09.100Z,-6.99
2022-12-18T10:48:47.943Z,-7.06
2022-12-18T10:51:34.890Z,-7.09
2022-12-18T10:54:23.511Z,-7.22
2022-12-18T10:56:50.581Z,-7.22
2022-12-18T10:59:19.055Z,-6.97
2022-12-18T11:01:59.323Z,-7.34
2022-12-18T11:04:26.087Z,-6.75
2022-12-18T11:07:06.787Z,-6.84
2022-12-18T11:09:38.545Z,-6.92
2022-12-18T11:12:16.062Z,-6.37
2022-12-18T11:14:47.700Z,-6.43
2022-12-18T11:17:26.720Z,-7.32
2022-12-18T11:20:02.434Z,-5.91
2022-12-18T11:22:32.724Z,-5.84
2022-12-18T11:27:53.891Z,-6.01
2022-12-18T11:30:26.451Z,-6.04
2022-12-18T11:33:18.619Z,-6.80
2022-12-18T11:35:48.068Z,-6.45
2022-12-18T11:38:24.328Z,-6.49
2022-12-18T11:41:00.065Z,-6.52
2022-12-18T11:43:36.626Z,-6.90
2022-12-18T11:46:20.232Z,-6.78
2022-12-18T11:48:55.496Z,-6.84
2022-12-18T11:51:30.867Z,-6.96
2022-12-18T11:53:57.697Z,-7.11
2022-12-18T11:56:33.056Z,-7.26
2022-12-18T11:59:27.130Z,-7.15
2022-12-18T12:01:59.441Z,-7.11
2022-12-18T12:05:01.491Z,-7.18
2022-12-18T12:08:07.008Z,-7.69
2022-12-18T12:10:43.804Z,-7.20
2022-12-18T12:13:26.407Z,-7.56
2022-12-18T12:16:25.703Z,-7.39
2022-12-18T12:19:12.508Z,-7.39
2022-12-18T12:21:43.234Z,-7.31
2022-12-18T12:24:20.237Z,-8.03
2022-12-18T12:27:01.527Z,-7.89
2022-12-18T12:29:34.128Z,-7.22
2022-12-18T12:32:23.710Z,-7.40
2022-12-18T12:35:15.343Z,-7.82
2022-12-18T12:38:08.113Z,-7.24
2022-12-18T12:40:53.485Z,-7.23
2022-12-18T12:43:49.440Z,-7.31
2022-12-18T12:46:22.848Z,-7.09
2022-12-18T12:48:55.422Z,-7.27
2022-12-18T12:51:26.652Z,-6.84
2022-12-18T12:53:55.535Z,-6.54
2022-12-18T12:56:24.393Z,-6.49
2022-12-18T12:59:06.155Z,-6.52
2022-12-18T13:02:05.584Z,-6.60
2022-12-18T13:05:11.006Z,-6.61
2022-12-18T13:07:51.178Z,-6.60
2022-12-18T13:10:19.034Z,-6.57
2022-12-18T13:13:03.960Z,-6.73
2022-12-18T13:15:38.580Z,-7.14
2022-12-18T13:18:15.580Z,-7.06
2022-12-18T13:20:52.455Z,-7.47
2022-12-18T13:23:25.232Z,-6.80
2022-12-18T13:25:59.825Z,-6.79
2022-12-18T13:28:48.230Z,-6.88
2022-12-18T13:31:31.003Z,-7.55
2022-12-18T13:34:28.288Z,-6.92
2022-12-18T13:37:15.570Z,-7.27
2022-12-18T13:39:43.009Z,-7.32
2022-12-18T13:42:09.576Z,-6.90
2022-12-18T13:44:41.808Z,-7.36
2022-12-18T13:47:32.065Z,-7.12
2022-12-18T13:49:59.529Z,-7.02
2022-12-18T13:52:29.411Z,-6.95
2022-12-18T13:54:59.955Z,-7.40
2022-12-18T13:57:26.475Z,-6.42
2022-12-18T13:59:53.347Z,-6.47
2022-12-18T14:02:28.652Z,-6.29
2022-12-18T14:04:56.440Z,-6.48
2022-12-18T14:07:31.474Z,-6.38
2022-12-18T14:10:44.321Z,-6.34
2022-12-18T14:13:10.553Z,-6.49
2022-12-18T14:15:47.023Z,-6.61
2022-12-18T14:18:43.713Z,-6.22
2022-12-18T14:21:33.461Z,-6.17
2022-12-18T14:24:16.754Z,-6.39
2022-12-18T14:26:48.322Z,-6.05
2022-12-18T14:29:24.330Z,-6.05
2022-12-18T14:32:18.756Z,-6.58
2022-12-18T14:34:56.955Z,-6.15
2022-12-18T14:37:28.392Z,-6.30
2022-12-18T14:40:10.422Z,-6.48
2022-12-18T14:42:38.329Z,-6.15
2022-12-18T14:45:41.644Z,-6.22
2022-12-18T14:48:19.092Z,-6.44
2022-12-18T14:51:03.491Z,-6.31
2022-12-18T14:53:35.074Z,-6.40
2022-12-18T14:56:02.582Z,-6.24
2022-12-18T14:58:29.657Z,-6.59
2022-12-18T15:00:56.436Z,-6.86
2022-12-18T15:03:24.227Z,-6.69
2022-12-18T15:05:53.394Z,-6.31
2022-12-18T15:08:32.133Z,-6.32
2022-12-18T15:11:00.816Z,-6.40
2022-12-18T15:13:29.001Z,-6.69
2022-12-18T15:16:02.559Z,-6.88
2022-12-18T15:18:36.589Z,-6.34
2022-12-18T15:21:18.712Z,-6.79
2022-12-18T15:23:46.276Z,-6.42
2022-12-18T15:26:15.891Z,-6.91
2022-12-18T15:28:57.493Z,-6.31
2022-12-18T15:31:39.106Z,-6.94
2022-12-18T15:34:09.572Z,-6.17
2022-12-18T15:36:37.760Z,-6.15
2022-12-18T15:39:06.627Z,-6.14
2022-12-18T15:41:36.370Z,-6.06
2022-12-18T15:44:04.999Z,-6.46
2022-12-18T15:46:32.498Z,-6.73
2022-12-18T15:49:02.642Z,-6.67
2022-12-18T15:51:38.686Z,-6.49
2022-12-18T15:54:14.184Z,-6.85
2022-12-18T15:56:59.791Z,-6.58
2022-12-18T15:59:27.469Z,-6.73
2022-12-18T16:01:55.287Z,-6.80
2022-12-18T16:04:23.551Z,-5.88
2022-12-18T16:09:41.390Z,-5.77
2022-12-18T16:12:19.455Z,-6.11
2022-12-18T16:14:47.579Z,-6.10
2022-12-18T16:17:16.427Z,-6.00
2022-12-18T16:19:44.340Z,-6.49
2022-12-18T16:22:31.492Z,-6.10
2022-12-18T16:24:59.315Z,-6.45
2022-12-18T16:27:27.443Z,-5.79
2022-12-18T16:29:55.158Z,-6.56
2022-12-18T16:32:23.526Z,-5.75
2022-12-18T16:35:00.897Z,-5.82
2022-12-18T16:37:29.884Z,-6.52
2022-12-18T16:39:59.229Z,-5.96
2022-12-18T16:42:28.374Z,-6.18
2022-12-18T16:44:56.497Z,-6.24
2022-12-18T16:47:25.786Z,-6.48
2022-12-18T16:49:53.897Z,-6.06
2022-12-18T16:52:24.350Z,-6.09
2022-12-18T16:54:51.979Z,-6.15
2022-12-18T16:57:24.663Z,-6.56
2022-12-18T16:59:53.535Z,-6.33
2022-12-18T17:02:28.205Z,-6.96
2022-12-18T17:05:00.837Z,-6.63
2022-12-18T17:07:29.178Z,-7.17
2022-12-18T17:09:58.947Z,-6.90
2022-12-18T17:12:27.446Z,-6.77
2022-12-18T17:14:56.498Z,-7.07
2022-12-18T17:17:24.337Z,-6.76
2022-12-18T17:19:53.041Z,-7.04
2022-12-18T17:22:23.370Z,-7.41
2022-12-18T17:24:50.822Z,-6.63
2022-12-18T17:27:18.384Z,-6.92
2022-12-18T17:29:48.234Z,-6.58
2022-12-18T17:32:18.004Z,-7.44
2022-12-18T17:34:46.360Z,-6.73
2022-12-18T17:37:14.716Z,-6.47
2022-12-18T17:39:42.415Z,-6.42
2022-12-18T17:42:14.832Z,-6.94
2022-12-18T17:44:45.412Z,-6.52
2022-12-18T17:47:16.642Z,-6.50
2022-12-18T17:49:44.991Z,-6.56
2022-12-18T17:52:13.436Z,-7.00
2022-12-18T17:54:42.484Z,-6.60
2022-12-18T17:57:11.259Z,-6.44
2022-12-18T17:59:39.308Z,-6.49
2022-12-18T18:02:07.099Z,-6.62
2022-12-18T18:04:34.725Z,-6.60
2022-12-18T18:07:02.051Z,-6.71
2022-12-18T18:09:29.080Z,-7.11
2022-12-18T18:12:15.240Z,-6.20
2022-12-18T18:14:42.560Z,-6.76
2022-12-18T18:17:09.967Z,-6.14
2022-12-18T18:19:36.969Z,-6.30
2022-12-18T18:22:06.256Z,-6.32
2022-12-18T18:24:33.807Z,-5.97
2022-12-18T18:27:01.894Z,-5.92
2022-12-18T18:29:32.932Z,-5.64
2022-12-18T18:32:00.292Z,-5.95
2022-12-18T18:34:30.308Z,-5.23
2022-12-18T18:36:57.362Z,-5.11
2022-12-18T18:39:24.415Z,-5.14
2022-12-18T18:41:51.707Z,-5.15
2022-12-18T18:44:24.807Z,-5.55
2022-12-18T18:46:57.748Z,-5.29
2022-12-18T18:49:28.395Z,-6.25
2022-12-18T18:51:57.350Z,-5.32
2022-12-18T18:54:26.219Z,-5.65
2022-12-18T18:57:19.302Z,-5.25
2022-12-18T18:59:41.083Z,-5.42
2022-12-18T19:02:16.101Z,-5.42
2022-12-18T19:04:46.242Z,-5.52
2022-12-18T19:07:18.489Z,-5.74
2022-12-18T19:09:57.487Z,-5.98
2022-12-18T19:12:45.742Z,-6.65
2022-12-18T19:15:16.834Z,-5.60
2022-12-18T19:17:47.861Z,-5.51
2022-12-18T19:20:18.121Z,-5.54
2022-12-18T19:22:54.822Z,-6.27
2022-12-18T19:25:30.674Z,-5.64
2022-12-18T19:28:12.034Z,-5.84
2022-12-18T19:30:50.033Z,-5.93
2022-12-18T19:33:41.575Z,-5.96
2022-12-18T19:36:29.154Z,-5.94
2022-12-18T19:39:00.743Z,-6.01
2022-12-18T19:41:32.049Z,-6.34
2022-12-18T19:44:07.359Z,-6.01
2022-12-18T19:46:36.024Z,-6.19
2022-12-18T19:49:04.473Z,-6.52
2022-12-18T19:51:32.793Z,-6.40
2022-12-18T19:54:02.704Z,-6.35
2022-12-18T19:56:32.835Z,-6.24
2022-12-18T19:59:00.449Z,-6.72
2022-12-18T20:01:28.659Z,-6.65
2022-12-18T20:03:57.580Z,-6.48
2022-12-18T20:06:30.257Z,-6.50
2022-12-18T20:09:01.054Z,-6.49
2022-12-18T20:11:30.141Z,-6.60
2022-12-18T20:13:57.992Z,-7.90
2022-12-18T20:16:28.332Z,-6.57
2022-12-18T20:19:00.747Z,-6.91
2022-12-18T20:21:28.547Z,-7.49
2022-12-18T20:24:00.164Z,-7.29
2022-12-18T20:26:27.902Z,-6.85
2022-12-18T20:28:55.653Z,-6.83
2022-12-18T20:31:23.852Z,-7.76
2022-12-18T20:33:53.313Z,-6.83
2022-12-18T20:36:23.394Z,-7.35
2022-12-18T20:38:56.370Z,-7.75
2022-12-18T20:41:28.177Z,-7.26
2022-12-18T20:44:05.839Z,-7.31
2022-12-18T20:46:35.451Z,-7.57
2022-12-18T20:49:03.513Z,-7.02
2022-12-18T20:51:31.704Z,-6.98
2022-12-18T20:53:59.752Z,-7.34
2022-12-18T20:56:27.454Z,-7.40
2022-12-18T20:58:57.067Z,-7.87
2022-12-18T21:01:25.384Z,-6.84
2022-12-18T21:03:54.308Z,-7.01
2022-12-18T21:06:23.185Z,-6.92
2022-12-18T21:08:50.653Z,-7.29
2022-12-18T21:11:38.953Z,-6.88
2022-12-18T21:14:23.922Z,-6.85
2022-12-18T21:16:51.821Z,-7.05
2022-12-18T21:19:23.117Z,-7.09
2022-12-18T21:21:50.758Z,-6.59
2022-12-18T21:24:18.252Z,-6.76
2022-12-18T21:26:47.360Z,-6.60
2022-12-18T21:29:20.228Z,-6.94
2022-12-18T21:31:47.995Z,-7.91
2022-12-18T21:34:21.719Z,-7.58
2022-12-18T21:36:49.572Z,-7.07
2022-12-18T21:39:17.438Z,-7.13
2022-12-18T21:42:03.501Z,-7.44
2022-12-18T21:44:31.004Z,-7.92
2022-12-18T21:47:15.273Z,-7.45
2022-12-18T21:49:48.614Z,-7.88
2022-12-18T21:52:15.602Z,-7.60
2022-12-18T21:54:42.531Z,-7.74
2022-12-18T21:57:13.325Z,-8.21
2022-12-18T21:59:42.592Z,-8.26
2022-12-18T22:02:16.793Z,-7.77
2022-12-18T22:04:45.100Z,-8.32
2022-12-18T22:07:13.610Z,-7.85
2022-12-18T22:09:41.136Z,-8.45
2022-12-18T22:12:09.050Z,-7.91
2022-12-18T22:14:36.161Z,-8.46
2022-12-18T22:17:03.110Z,-7.90
2022-12-18T22:19:30.888Z,-8.19
2022-12-18T22:21:57.879Z,-8.08
2022-12-18T22:24:26.663Z,-8.00
2022-12-18T22:27:01.951Z,-8.05
2022-12-18T22:29:48.412Z,-8.00
2022-12-18T22:32:22.240Z,-8.00
2022-12-18T22:35:05.255Z,-7.98
2022-12-18T22:37:34.098Z,-8.25
2022-12-18T22:40:03.301Z,-8.38
2022-12-18T22:42:31.599Z,-8.38
2022-12-18T22:44:58.529Z,-8.62
2022-12-18T22:47:29.731Z,-8.59
2022-12-18T22:49:57.348Z,-8.26
2022-12-18T22:52:25.058Z,-8.26
2022-12-18T22:54:53.144Z,-8.08
2022-12-18T22:57:24.306Z,-8.81
2022-12-18T22:59:51.718Z,-7.83
2022-12-18T23:02:19.687Z,-7.65
2022-12-18T23:04:47.735Z,-7.61
2022-12-18T23:07:15.506Z,-7.92
2022-12-18T23:09:42.585Z,-8.00
2022-12-18T23:12:15.017Z,-7.70
2022-12-18T23:14:42.048Z,-7.60
2022-12-18T23:17:09.127Z,-7.96
2022-12-18T23:19:37.488Z,-7.59
2022-12-18T23:22:08.664Z,-7.67
2022-12-18T23:24:38.577Z,-7.92
2022-12-18T23:27:05.741Z,-7.50
2022-12-18T23:29:36.367Z,-7.69
2022-12-18T23:32:03.363Z,-7.97
2022-12-18T23:34:30.325Z,-7.52
2022-12-18T23:36:58.085Z,-7.93
2022-12-18T23:39:29.705Z,-8.35
2022-12-18T23:42:00.921Z,-7.88
2022-12-18T23:44:28.432Z,-7.88
2022-12-18T23:46:55.856Z,-8.17
2022-12-18T23:49:23.125Z,-8.03
2022-12-18T23:51:50.386Z,-8.24
2022-12-18T23:54:17.424Z,-8.40
2022-12-18T23:56:52.308Z,-8.14
2022-12-18T23:59:22.640Z,-8.10
